createdAt,value
2019-02-10T00:00:40.803Z,997.53
2019-02-10T00:01:40.785Z,997.51
2019-02-10T00:02:40.766Z,997.53
2019-02-10T00:03:41.085Z,997.55
2019-02-10T00:04:40.726Z,997.51
2019-02-10T00:05:40.709Z,997.5
2019-02-10T00:06:40.689Z,997.45
2019-02-10T00:07:40.670Z,997.42
2019-02-10T00:08:40.650Z,997.38
2019-02-10T00:09:40.632Z,997.37
2019-02-10T00:10:40.627Z,997.42
2019-02-10T00:11:40.597Z,997.4
2019-02-10T00:12:40.575Z,997.43
2019-02-10T00:13:40.557Z,997.37
2019-02-10T00:14:40.536Z,997.38
2019-02-10T00:15:40.517Z,997.32
2019-02-10T00:16:40.500Z,997.28
2019-02-10T00:17:40.479Z,997.22
2019-02-10T00:18:40.460Z,997.23
2019-02-10T00:19:40.443Z,997.24
2019-02-10T00:20:40.468Z,997.21
2019-02-10T00:21:40.402Z,997.17
2019-02-10T00:22:40.384Z,997.17
2019-02-10T00:23:40.378Z,997.12
2019-02-10T00:24:40.349Z,997.07
2019-02-10T00:25:40.330Z,997.03
2019-02-10T00:26:40.308Z,997.06
2019-02-10T00:27:40.492Z,997.06
2019-02-10T00:28:40.269Z,997.03
2019-02-10T00:29:40.250Z,997.02
2019-02-10T00:30:40.230Z,996.97
2019-02-10T00:31:40.210Z,996.92
2019-02-10T00:32:40.198Z,996.85
2019-02-10T00:33:40.178Z,996.9
2019-02-10T00:34:40.155Z,996.86
2019-02-10T00:35:40.141Z,996.83
2019-02-10T00:36:40.218Z,996.81
2019-02-10T00:37:40.103Z,996.81
2019-02-10T00:38:40.082Z,996.82
2019-02-10T00:39:40.056Z,996.79
2019-02-10T00:40:40.040Z,996.71
2019-02-10T00:41:40.022Z,996.71
2019-02-10T00:42:40.001Z,996.68
2019-02-10T00:43:40.031Z,996.68
2019-02-10T00:44:39.961Z,996.63
2019-02-10T00:45:39.945Z,996.64
2019-02-10T00:46:39.923Z,996.62
2019-02-10T00:47:39.912Z,996.59
2019-02-10T00:48:39.899Z,996.55
2019-02-10T00:49:39.867Z,996.57
2019-02-10T00:50:39.851Z,996.49
2019-02-10T00:51:39.830Z,996.47
2019-02-10T00:52:39.809Z,996.47
2019-02-10T00:53:39.790Z,996.46
2019-02-10T00:54:39.771Z,996.44
2019-02-10T00:55:39.751Z,996.42
2019-02-10T00:56:39.731Z,996.39
2019-02-10T00:57:39.720Z,996.36
2019-02-10T00:58:39.693Z,996.38
2019-02-10T00:59:39.673Z,996.3
2019-02-10T01:00:39.654Z,996.33
2019-02-10T01:01:39.634Z,996.31
2019-02-10T01:02:39.616Z,996.23
2019-02-10T01:03:39.600Z,996.22
2019-02-10T01:04:39.582Z,996.2
2019-02-10T01:05:39.557Z,996.18
2019-02-10T01:06:41.361Z,996.21
2019-02-10T01:07:39.520Z,996.11
2019-02-10T01:08:39.502Z,996.11
2019-02-10T01:09:39.482Z,996.05
2019-02-10T01:10:39.466Z,996.12
2019-02-10T01:11:39.809Z,996.06
2019-02-10T01:12:39.422Z,996.01
2019-02-10T01:13:39.407Z,995.96
2019-02-10T01:14:39.388Z,995.97
2019-02-10T01:15:39.369Z,995.98
2019-02-10T01:16:39.345Z,995.95
2019-02-10T01:17:39.337Z,995.89
2019-02-10T01:18:39.312Z,995.87
2019-02-10T01:19:39.289Z,995.87
2019-02-10T01:20:39.268Z,995.78
2019-02-10T01:21:39.252Z,995.78
2019-02-10T01:22:39.230Z,995.76
2019-02-10T01:23:39.211Z,995.77
2019-02-10T01:24:39.395Z,995.71
2019-02-10T01:25:39.178Z,995.74
2019-02-10T01:26:39.157Z,995.72
2019-02-10T01:27:39.138Z,995.65
2019-02-10T01:28:39.120Z,995.71
2019-02-10T01:29:39.098Z,995.65
2019-02-10T01:30:39.080Z,995.64
2019-02-10T01:31:39.059Z,995.55
2019-02-10T01:32:39.039Z,995.54
2019-02-10T01:33:39.023Z,995.53
2019-02-10T01:34:39.001Z,995.57
2019-02-10T01:35:38.983Z,995.5
2019-02-10T01:36:38.963Z,995.47
2019-02-10T01:37:38.947Z,995.52
2019-02-10T01:38:38.931Z,995.45
2019-02-10T01:39:38.907Z,995.38
2019-02-10T01:40:38.888Z,995.42
2019-02-10T01:41:38.870Z,995.41
2019-02-10T01:42:38.847Z,995.41
2019-02-10T01:43:38.830Z,995.34
2019-02-10T01:44:38.812Z,995.32
2019-02-10T01:45:38.792Z,995.31
2019-02-10T01:46:38.772Z,995.27
2019-02-10T01:47:38.757Z,995.28
2019-02-10T01:48:38.734Z,995.29
2019-02-10T01:49:38.716Z,995.28
2019-02-10T01:50:38.696Z,995.24
2019-02-10T01:51:38.678Z,995.3
2019-02-10T01:52:38.661Z,995.16
2019-02-10T01:53:38.638Z,995.17
2019-02-10T01:54:38.621Z,995.11
2019-02-10T01:55:38.601Z,995.09
2019-02-10T01:56:38.584Z,995.08
2019-02-10T01:57:38.567Z,995.04
2019-02-10T01:58:38.545Z,994.99
2019-02-10T01:59:38.523Z,995
2019-02-10T02:00:38.503Z,995
2019-02-10T02:01:38.488Z,994.96
2019-02-10T02:02:38.466Z,994.95
2019-02-10T02:03:38.449Z,994.94
2019-02-10T02:04:38.429Z,994.87
2019-02-10T02:05:38.411Z,994.95
2019-02-10T02:06:38.394Z,994.92
2019-02-10T02:07:38.373Z,994.87
2019-02-10T02:08:38.352Z,994.86
2019-02-10T02:09:38.343Z,994.81
2019-02-10T02:10:38.317Z,994.81
2019-02-10T02:11:38.300Z,994.81
2019-02-10T02:12:38.279Z,994.8
2019-02-10T02:13:38.276Z,994.76
2019-02-10T02:14:38.236Z,994.73
2019-02-10T02:15:38.218Z,994.75
2019-02-10T02:16:38.199Z,994.73
2019-02-10T02:17:38.184Z,994.73
2019-02-10T02:18:38.165Z,994.71
2019-02-10T02:19:38.146Z,994.62
2019-02-10T02:20:38.127Z,994.67
2019-02-10T02:21:38.103Z,994.6
2019-02-10T02:22:38.084Z,994.59
2019-02-10T02:23:38.068Z,994.58
2019-02-10T02:24:38.046Z,994.52
2019-02-10T02:25:38.026Z,994.59
2019-02-10T02:26:38.008Z,994.57
2019-02-10T02:27:37.991Z,994.53
2019-02-10T02:28:37.969Z,994.48
2019-02-10T02:29:37.950Z,994.43
2019-02-10T02:30:37.934Z,994.52
2019-02-10T02:31:37.914Z,994.41
2019-02-10T02:32:37.894Z,994.39
2019-02-10T02:33:37.881Z,994.35
2019-02-10T02:34:37.854Z,994.32
2019-02-10T02:35:37.843Z,994.3
2019-02-10T02:36:37.814Z,994.21
2019-02-10T02:37:37.792Z,994.18
2019-02-10T02:38:37.874Z,994.2
2019-02-10T02:39:37.761Z,994.1
2019-02-10T02:40:37.734Z,994.06
2019-02-10T02:41:37.715Z,994.07
2019-02-10T02:42:37.696Z,994.06
2019-02-10T02:43:37.677Z,993.98
2019-02-10T02:44:37.683Z,993.94
2019-02-10T02:45:37.636Z,993.97
2019-02-10T02:46:37.618Z,993.89
2019-02-10T02:47:37.599Z,993.86
2019-02-10T02:48:37.579Z,993.77
2019-02-10T02:49:37.558Z,993.77
2019-02-10T02:50:37.537Z,993.71
2019-02-10T02:51:37.518Z,993.65
2019-02-10T02:52:37.497Z,993.6
2019-02-10T02:53:37.479Z,993.56
2019-02-10T02:54:37.458Z,993.53
2019-02-10T02:55:37.440Z,993.51
2019-02-10T02:56:37.424Z,993.46
2019-02-10T02:57:37.402Z,993.43
2019-02-10T02:58:37.381Z,993.47
2019-02-10T02:59:37.360Z,993.39
2019-02-10T03:00:37.353Z,993.42
2019-02-10T03:01:37.320Z,993.41
2019-02-10T03:02:37.299Z,993.35
2019-02-10T03:03:37.284Z,993.36
2019-02-10T03:04:37.260Z,993.34
2019-02-10T03:05:37.243Z,993.27
2019-02-10T03:06:37.221Z,993.17
2019-02-10T03:07:37.203Z,993.17
2019-02-10T03:08:37.183Z,993.12
2019-02-10T03:09:37.160Z,993.08
2019-02-10T03:10:37.148Z,993.05
2019-02-10T03:11:37.122Z,993.01
2019-02-10T03:12:37.102Z,992.98
2019-02-10T03:13:37.081Z,992.92
2019-02-10T03:14:37.067Z,992.9
2019-02-10T03:15:37.042Z,992.85
2019-02-10T03:16:37.021Z,992.85
2019-02-10T03:17:37.028Z,992.85
2019-02-10T03:18:36.984Z,992.81
2019-02-10T03:19:36.963Z,992.8
2019-02-10T03:20:36.943Z,992.77
2019-02-10T03:21:36.922Z,992.72
2019-02-10T03:22:36.902Z,992.69
2019-02-10T03:23:36.884Z,992.66
2019-02-10T03:24:37.082Z,992.68
2019-02-10T03:25:36.845Z,992.59
2019-02-10T03:26:36.825Z,992.54
2019-02-10T03:27:36.801Z,992.6
2019-02-10T03:28:36.784Z,992.53
2019-02-10T03:29:36.762Z,992.54
2019-02-10T03:30:36.746Z,992.53
2019-02-10T03:31:36.750Z,992.49
2019-02-10T03:32:36.706Z,992.47
2019-02-10T03:33:36.685Z,992.45
2019-02-10T03:34:36.662Z,992.39
2019-02-10T03:35:36.643Z,992.38
2019-02-10T03:36:36.622Z,992.32
2019-02-10T03:37:36.610Z,992.28
2019-02-10T03:38:36.591Z,992.25
2019-02-10T03:39:36.562Z,992.24
2019-02-10T03:40:36.545Z,992.23
2019-02-10T03:41:36.522Z,992.14
2019-02-10T03:42:36.508Z,992.11
2019-02-10T03:43:36.481Z,992.1
2019-02-10T03:44:36.470Z,992.04
2019-02-10T03:45:36.442Z,991.97
2019-02-10T03:46:36.424Z,991.95
2019-02-10T03:47:36.402Z,991.95
2019-02-10T03:48:36.383Z,991.85
2019-02-10T03:49:36.363Z,991.81
2019-02-10T03:50:36.341Z,991.8
2019-02-10T03:51:36.320Z,991.76
2019-02-10T03:52:36.306Z,991.78
2019-02-10T03:53:36.281Z,991.78
2019-02-10T03:54:36.263Z,991.79
2019-02-10T03:55:36.242Z,991.75
2019-02-10T03:56:36.223Z,991.78
2019-02-10T03:57:36.202Z,991.81
2019-02-10T03:58:36.190Z,991.81
2019-02-10T03:59:36.161Z,991.69
2019-02-10T04:00:36.139Z,991.7
2019-02-10T04:01:36.118Z,991.59
2019-02-10T04:02:36.098Z,991.58
2019-02-10T04:03:36.079Z,991.52
2019-02-10T04:04:36.058Z,991.49
2019-02-10T04:05:36.038Z,991.47
2019-02-10T04:06:36.023Z,991.39
2019-02-10T04:07:36.543Z,991.39
2019-02-10T04:08:35.980Z,991.33
2019-02-10T04:09:35.956Z,991.3
2019-02-10T04:10:35.936Z,991.23
2019-02-10T04:11:35.916Z,991.22
2019-02-10T04:12:35.896Z,991.22
2019-02-10T04:13:35.879Z,991.17
2019-02-10T04:14:35.856Z,991.19
2019-02-10T04:15:35.836Z,991.06
2019-02-10T04:16:35.859Z,991.02
2019-02-10T04:17:35.794Z,991.03
2019-02-10T04:18:35.774Z,990.97
2019-02-10T04:19:35.752Z,990.89
2019-02-10T04:20:35.737Z,990.86
2019-02-10T04:21:35.713Z,990.8
2019-02-10T04:22:35.691Z,990.77
2019-02-10T04:23:35.672Z,990.74
2019-02-10T04:24:35.657Z,990.77
2019-02-10T04:25:35.632Z,990.69
2019-02-10T04:26:35.611Z,990.75
2019-02-10T04:27:35.592Z,990.7
2019-02-10T04:28:35.571Z,990.62
2019-02-10T04:29:35.551Z,990.59
2019-02-10T04:30:35.535Z,990.54
2019-02-10T04:31:35.510Z,990.56
2019-02-10T04:32:35.490Z,990.53
2019-02-10T04:33:35.470Z,990.52
2019-02-10T04:34:35.474Z,990.53
2019-02-10T04:35:35.431Z,990.41
2019-02-10T04:36:35.412Z,990.39
2019-02-10T04:37:35.387Z,990.38
2019-02-10T04:38:35.367Z,990.34
2019-02-10T04:39:35.347Z,990.37
2019-02-10T04:40:35.331Z,990.28
2019-02-10T04:41:35.307Z,990.21
2019-02-10T04:42:35.289Z,990.15
2019-02-10T04:43:35.269Z,990.12
2019-02-10T04:44:35.254Z,990.12
2019-02-10T04:45:35.228Z,990.08
2019-02-10T04:46:35.208Z,990
2019-02-10T04:47:35.185Z,989.95
2019-02-10T04:48:35.163Z,989.9
2019-02-10T04:49:35.141Z,989.87
2019-02-10T04:50:35.125Z,989.77
2019-02-10T04:51:35.102Z,989.75
2019-02-10T04:52:35.124Z,989.71
2019-02-10T04:53:35.060Z,989.7
2019-02-10T04:54:35.041Z,989.62
2019-02-10T04:55:35.019Z,989.57
2019-02-10T04:56:35.001Z,989.54
2019-02-10T04:57:34.982Z,989.5
2019-02-10T04:58:34.962Z,989.5
2019-02-10T04:59:34.943Z,989.43
2019-02-10T05:00:34.923Z,989.39
2019-02-10T05:01:34.909Z,989.37
2019-02-10T05:02:34.882Z,989.32
2019-02-10T05:03:34.859Z,989.26
2019-02-10T05:04:34.846Z,989.2
2019-02-10T05:05:34.815Z,989.22
2019-02-10T05:06:34.794Z,989.14
2019-02-10T05:07:34.774Z,989.15
2019-02-10T05:08:34.754Z,989.02
2019-02-10T05:09:34.744Z,989.02
2019-02-10T05:10:34.713Z,988.98
2019-02-10T05:11:34.692Z,988.99
2019-02-10T05:12:34.674Z,988.92
2019-02-10T05:13:34.650Z,988.91
2019-02-10T05:14:34.634Z,988.86
2019-02-10T05:15:34.610Z,988.85
2019-02-10T05:16:34.591Z,988.79
2019-02-10T05:17:34.568Z,988.85
2019-02-10T05:18:34.547Z,988.77
2019-02-10T05:19:34.532Z,988.74
2019-02-10T05:20:34.508Z,988.72
2019-02-10T05:21:34.487Z,988.63
2019-02-10T05:22:34.469Z,988.57
2019-02-10T05:23:34.447Z,988.57
2019-02-10T05:24:34.627Z,988.48
2019-02-10T05:25:34.404Z,988.46
2019-02-10T05:26:34.420Z,988.37
2019-02-10T05:27:34.364Z,988.27
2019-02-10T05:28:34.342Z,988.26
2019-02-10T05:29:34.323Z,988.22
2019-02-10T05:30:34.304Z,988.15
2019-02-10T05:31:34.284Z,988.09
2019-02-10T05:32:34.270Z,987.95
2019-02-10T05:33:34.246Z,987.99
2019-02-10T05:34:34.220Z,988.03
2019-02-10T05:35:34.199Z,987.91
2019-02-10T05:36:34.179Z,987.84
2019-02-10T05:37:34.158Z,987.86
2019-02-10T05:38:34.179Z,987.82
2019-02-10T05:39:34.122Z,987.79
2019-02-10T05:40:34.096Z,987.67
2019-02-10T05:41:34.081Z,987.65
2019-02-10T05:42:34.067Z,987.6
2019-02-10T05:43:34.036Z,987.51
2019-02-10T05:44:34.016Z,987.5
2019-02-10T05:45:33.995Z,987.47
2019-02-10T05:46:33.973Z,987.42
2019-02-10T05:47:33.957Z,987.35
2019-02-10T05:48:33.940Z,987.28
2019-02-10T05:49:33.916Z,987.18
2019-02-10T05:50:33.892Z,987.17
2019-02-10T05:51:33.871Z,987.13
2019-02-10T05:52:33.852Z,987.09
2019-02-10T05:53:33.833Z,987.07
2019-02-10T05:54:33.828Z,987.02
2019-02-10T05:55:33.794Z,987.03
2019-02-10T05:56:33.770Z,986.88
2019-02-10T05:57:33.750Z,986.86
2019-02-10T05:58:33.732Z,986.9
2019-02-10T05:59:33.714Z,986.83
2019-02-10T06:00:33.698Z,986.83
2019-02-10T06:01:33.668Z,986.77
2019-02-10T06:02:33.650Z,986.67
2019-02-10T06:03:33.629Z,986.71
2019-02-10T06:04:33.607Z,986.61
2019-02-10T06:05:33.586Z,986.53
2019-02-10T06:06:33.569Z,986.56
2019-02-10T06:07:33.552Z,986.57
2019-02-10T06:08:33.528Z,986.5
2019-02-10T06:09:33.521Z,986.43
2019-02-10T06:10:33.486Z,986.36
2019-02-10T06:11:33.467Z,986.38
2019-02-10T06:12:33.444Z,986.36
2019-02-10T06:13:33.423Z,986.4
2019-02-10T06:14:33.402Z,986.32
2019-02-10T06:15:33.394Z,986.37
2019-02-10T06:16:33.361Z,986.3
2019-02-10T06:17:33.348Z,986.27
2019-02-10T06:18:33.327Z,986.15
2019-02-10T06:19:33.318Z,986.11
2019-02-10T06:20:33.279Z,986.17
2019-02-10T06:21:33.261Z,986.04
2019-02-10T06:22:33.241Z,986.05
2019-02-10T06:23:33.264Z,986.1
2019-02-10T06:24:33.200Z,986.09
2019-02-10T06:25:33.179Z,986
2019-02-10T06:26:33.157Z,986.02
2019-02-10T06:27:33.139Z,985.93
2019-02-10T06:28:33.117Z,985.94
2019-02-10T06:29:33.100Z,985.83
2019-02-10T06:30:33.076Z,985.83
2019-02-10T06:31:33.056Z,985.78
2019-02-10T06:32:33.038Z,985.92
2019-02-10T06:33:33.015Z,985.94
2019-02-10T06:34:32.994Z,985.89
2019-02-10T06:35:32.976Z,985.76
2019-02-10T06:36:32.958Z,985.75
2019-02-10T06:37:32.937Z,985.72
2019-02-10T06:38:32.913Z,985.67
2019-02-10T06:39:32.894Z,985.69
2019-02-10T06:40:32.873Z,985.71
2019-02-10T06:41:32.854Z,985.78
2019-02-10T06:42:32.931Z,985.75
2019-02-10T06:43:32.812Z,985.8
2019-02-10T06:44:32.792Z,985.71
2019-02-10T06:45:32.774Z,985.65
2019-02-10T06:46:32.751Z,985.61
2019-02-10T06:47:32.733Z,985.52
2019-02-10T06:48:32.710Z,985.54
2019-02-10T06:49:32.691Z,985.43
2019-02-10T06:50:32.669Z,985.51
2019-02-10T06:51:32.654Z,985.52
2019-02-10T06:52:32.628Z,985.43
2019-02-10T06:53:32.608Z,985.38
2019-02-10T06:54:32.588Z,985.44
2019-02-10T06:55:32.568Z,985.34
2019-02-10T06:56:32.546Z,985.34
2019-02-10T06:57:32.530Z,985.29
2019-02-10T06:58:32.507Z,985.28
2019-02-10T06:59:32.497Z,985.23
2019-02-10T07:00:32.472Z,985.19
2019-02-10T07:01:32.446Z,985.25
2019-02-10T07:02:32.428Z,985.07
2019-02-10T07:03:32.405Z,985.05
2019-02-10T07:04:32.384Z,984.99
2019-02-10T07:05:32.366Z,984.98
2019-02-10T07:06:32.347Z,985.01
2019-02-10T07:07:32.325Z,984.97
2019-02-10T07:08:32.304Z,985
2019-02-10T07:09:32.286Z,985.02
2019-02-10T07:10:32.263Z,984.96
2019-02-10T07:11:32.255Z,984.94
2019-02-10T07:12:32.228Z,984.9
2019-02-10T07:13:32.209Z,984.86
2019-02-10T07:14:32.191Z,984.81
2019-02-10T07:15:32.168Z,984.76
2019-02-10T07:16:32.148Z,984.7
2019-02-10T07:17:32.126Z,984.64
2019-02-10T07:18:32.127Z,984.65
2019-02-10T07:19:32.083Z,984.66
2019-02-10T07:20:32.065Z,984.68
2019-02-10T07:21:32.042Z,984.67
2019-02-10T07:22:32.021Z,984.64
2019-02-10T07:23:32.007Z,984.6
2019-02-10T07:24:31.986Z,984.61
2019-02-10T07:25:31.962Z,984.65
2019-02-10T07:26:31.940Z,984.55
2019-02-10T07:27:31.924Z,984.56
2019-02-10T07:28:31.905Z,984.46
2019-02-10T07:29:31.884Z,984.31
2019-02-10T07:30:31.860Z,984.29
2019-02-10T07:31:31.841Z,984.19
2019-02-10T07:32:31.819Z,984.12
2019-02-10T07:33:31.803Z,984.11
2019-02-10T07:34:31.807Z,983.98
2019-02-10T07:35:31.765Z,983.95
2019-02-10T07:36:31.741Z,983.94
2019-02-10T07:37:31.721Z,983.92
2019-02-10T07:38:38.442Z,983.86
2019-02-10T07:39:31.683Z,983.8
2019-02-10T07:40:31.666Z,983.8
2019-02-10T07:41:31.641Z,983.76
2019-02-10T07:42:31.623Z,983.71
2019-02-10T07:43:31.601Z,983.68
2019-02-10T07:44:31.582Z,983.69
2019-02-10T07:45:31.560Z,983.58
2019-02-10T07:46:31.544Z,983.58
2019-02-10T07:47:31.520Z,983.57
2019-02-10T07:48:31.503Z,983.55
2019-02-10T07:49:31.484Z,983.47
2019-02-10T07:50:31.467Z,983.32
2019-02-10T07:51:31.443Z,983.37
2019-02-10T07:52:31.425Z,983.44
2019-02-10T07:53:31.404Z,983.35
2019-02-10T07:54:31.383Z,983.32
2019-02-10T07:55:31.367Z,983.3
2019-02-10T07:56:31.342Z,983.33
2019-02-10T07:57:31.325Z,983.26
2019-02-10T07:58:31.360Z,983.32
2019-02-10T07:59:31.288Z,983.21
2019-02-10T08:00:31.265Z,983.26
2019-02-10T08:01:31.245Z,983.16
2019-02-10T08:02:31.224Z,983.14
2019-02-10T08:03:31.210Z,983.15
2019-02-10T08:04:31.202Z,983.13
2019-02-10T08:05:31.164Z,983.06
2019-02-10T08:06:31.146Z,983.14
2019-02-10T08:07:31.127Z,983.09
2019-02-10T08:08:31.111Z,983.09
2019-02-10T08:09:31.085Z,982.9
2019-02-10T08:10:31.070Z,982.88
2019-02-10T08:11:31.048Z,982.85
2019-02-10T08:12:31.029Z,982.84
2019-02-10T08:13:31.005Z,982.83
2019-02-10T08:14:30.986Z,982.92
2019-02-10T08:15:30.967Z,982.89
2019-02-10T08:16:30.950Z,982.78
2019-02-10T08:17:30.927Z,982.85
2019-02-10T08:18:30.908Z,982.84
2019-02-10T08:19:30.889Z,982.86
2019-02-10T08:20:30.868Z,982.82
2019-02-10T08:21:30.856Z,982.99
2019-02-10T08:22:30.828Z,982.91
2019-02-10T08:23:30.811Z,982.89
2019-02-10T08:24:30.788Z,982.95
2019-02-10T08:25:30.776Z,982.79
2019-02-10T08:26:30.757Z,982.74
2019-02-10T08:27:30.732Z,982.87
2019-02-10T08:28:30.715Z,982.82
2019-02-10T08:29:30.700Z,982.84
2019-02-10T08:30:30.672Z,982.75
2019-02-10T08:31:30.658Z,982.88
2019-02-10T08:32:30.635Z,982.69
2019-02-10T08:33:30.611Z,982.66
2019-02-10T08:34:30.594Z,982.67
2019-02-10T08:35:30.578Z,982.65
2019-02-10T08:36:30.564Z,982.73
2019-02-10T08:37:30.547Z,982.6
2019-02-10T08:38:30.527Z,982.52
2019-02-10T08:39:30.495Z,982.51
2019-02-10T08:40:30.478Z,982.46
2019-02-10T08:41:30.460Z,982.57
2019-02-10T08:42:30.435Z,982.54
2019-02-10T08:43:30.423Z,982.49
2019-02-10T08:44:30.397Z,982.44
2019-02-10T08:45:30.376Z,982.53
2019-02-10T08:46:30.359Z,982.44
2019-02-10T08:47:33.667Z,982.46
2019-02-10T08:48:30.324Z,982.42
2019-02-10T08:49:30.299Z,982.53
2019-02-10T08:50:30.282Z,982.41
2019-02-10T08:51:30.263Z,982.48
2019-02-10T08:52:30.242Z,982.34
2019-02-10T08:53:30.222Z,982.32
2019-02-10T08:54:30.203Z,982.43
2019-02-10T08:55:30.186Z,982.31
2019-02-10T08:56:30.164Z,982.31
2019-02-10T08:57:30.144Z,982.21
2019-02-10T08:58:30.125Z,982.18
2019-02-10T08:59:30.106Z,982.25
2019-02-10T09:00:30.086Z,982.12
2019-02-10T09:01:30.099Z,982.09
2019-02-10T09:02:30.047Z,982.07
2019-02-10T09:03:30.033Z,982.14
2019-02-10T09:04:30.008Z,982.11
2019-02-10T09:05:30.000Z,982.04
2019-02-10T09:06:29.975Z,982.09
2019-02-10T09:07:29.950Z,982.13
2019-02-10T09:08:29.936Z,982.03
2019-02-10T09:09:29.917Z,982.1
2019-02-10T09:10:29.894Z,982.02
2019-02-10T09:11:29.874Z,982.07
2019-02-10T09:12:29.856Z,982.07
2019-02-10T09:13:29.835Z,981.94
2019-02-10T09:14:29.870Z,981.91
2019-02-10T09:15:29.797Z,981.98
2019-02-10T09:16:29.788Z,981.85
2019-02-10T09:17:29.760Z,981.83
2019-02-10T09:18:29.739Z,981.86
2019-02-10T09:19:29.779Z,981.95
2019-02-10T09:20:29.702Z,981.83
2019-02-10T09:21:29.683Z,982.02
2019-02-10T09:22:29.663Z,981.88
2019-02-10T09:23:29.652Z,981.84
2019-02-10T09:24:29.643Z,981.9
2019-02-10T09:25:29.814Z,981.88
2019-02-10T09:26:29.597Z,981.74
2019-02-10T09:27:29.573Z,981.78
2019-02-10T09:28:29.556Z,981.78
2019-02-10T09:29:29.584Z,981.78
2019-02-10T09:30:29.519Z,981.76
2019-02-10T09:31:29.502Z,981.82
2019-02-10T09:32:29.477Z,981.72
2019-02-10T09:33:29.456Z,981.83
2019-02-10T09:34:29.640Z,981.83
2019-02-10T09:35:29.420Z,981.77
2019-02-10T09:36:29.398Z,981.76
2019-02-10T09:37:29.386Z,981.68
2019-02-10T09:38:29.365Z,981.71
2019-02-10T09:39:29.393Z,981.79
2019-02-10T09:40:29.326Z,981.63
2019-02-10T09:41:29.306Z,981.72
2019-02-10T09:42:29.286Z,981.67
2019-02-10T09:43:29.270Z,981.72
2019-02-10T09:44:29.250Z,981.7
2019-02-10T09:45:29.230Z,981.64
2019-02-10T09:46:29.209Z,981.74
2019-02-10T09:47:29.196Z,981.63
2019-02-10T09:48:29.179Z,981.69
2019-02-10T09:49:29.156Z,981.69
2019-02-10T09:50:29.136Z,981.71
2019-02-10T09:51:29.116Z,981.65
2019-02-10T09:52:29.098Z,981.62
2019-02-10T09:53:29.078Z,981.66
2019-02-10T09:54:29.061Z,981.7
2019-02-10T09:55:29.041Z,981.62
2019-02-10T09:56:29.026Z,981.64
2019-02-10T09:57:29.006Z,981.61
2019-02-10T09:58:28.985Z,981.55
2019-02-10T09:59:28.966Z,981.67
2019-02-10T10:00:28.950Z,981.59
2019-02-10T10:01:28.929Z,981.56
2019-02-10T10:02:28.914Z,981.6
2019-02-10T10:03:28.892Z,981.52
2019-02-10T10:04:28.873Z,981.46
2019-02-10T10:05:28.854Z,981.59
2019-02-10T10:06:28.835Z,981.52
2019-02-10T10:07:28.816Z,981.53
2019-02-10T10:08:28.798Z,981.47
2019-02-10T10:09:28.835Z,981.6
2019-02-10T10:10:28.760Z,981.58
2019-02-10T10:11:28.744Z,981.62
2019-02-10T10:12:28.724Z,981.65
2019-02-10T10:13:28.706Z,981.53
2019-02-10T10:14:30.752Z,981.49
2019-02-10T10:15:28.666Z,981.63
2019-02-10T10:16:28.649Z,981.44
2019-02-10T10:17:28.630Z,981.65
2019-02-10T10:18:28.613Z,981.59
2019-02-10T10:19:28.594Z,981.64
2019-02-10T10:20:28.628Z,981.59
2019-02-10T10:21:28.553Z,981.6
2019-02-10T10:22:28.535Z,981.55
2019-02-10T10:23:28.518Z,981.63
2019-02-10T10:24:28.504Z,981.65
2019-02-10T10:25:28.480Z,981.67
2019-02-10T10:26:28.461Z,981.54
2019-02-10T10:27:28.447Z,981.45
2019-02-10T10:28:28.425Z,981.55
2019-02-10T10:29:28.405Z,981.75
2019-02-10T10:30:28.386Z,981.48
2019-02-10T10:31:28.366Z,981.47
2019-02-10T10:32:28.346Z,981.48
2019-02-10T10:33:28.326Z,981.5
2019-02-10T10:34:28.314Z,981.53
2019-02-10T10:35:28.289Z,981.42
2019-02-10T10:36:28.299Z,981.43
2019-02-10T10:37:28.256Z,981.34
2019-02-10T10:38:28.231Z,981.42
2019-02-10T10:39:28.214Z,981.36
2019-02-10T10:40:28.192Z,981.42
2019-02-10T10:41:28.172Z,981.38
2019-02-10T10:42:28.153Z,981.3
2019-02-10T10:43:28.136Z,981.42
2019-02-10T10:44:28.121Z,981.38
2019-02-10T10:45:28.097Z,981.29
2019-02-10T10:46:28.080Z,981.29
2019-02-10T10:47:28.059Z,981.36
2019-02-10T10:48:28.040Z,981.32
2019-02-10T10:49:28.021Z,981.24
2019-02-10T10:50:28.001Z,981.32
2019-02-10T10:51:27.980Z,981.28
2019-02-10T10:52:27.964Z,981.3
2019-02-10T10:53:27.944Z,981.3
2019-02-10T10:54:27.923Z,981.28
2019-02-10T10:55:27.906Z,981.26
2019-02-10T10:56:27.887Z,981.26
2019-02-10T10:57:27.867Z,981.2
2019-02-10T10:58:27.848Z,981.14
2019-02-10T10:59:27.832Z,981.22
2019-02-10T11:00:27.813Z,981.15
2019-02-10T11:01:27.791Z,981.08
2019-02-10T11:02:27.774Z,981.08
2019-02-10T11:03:27.754Z,981.12
2019-02-10T11:04:27.734Z,981.01
2019-02-10T11:05:27.718Z,980.96
2019-02-10T11:06:27.696Z,981.04
2019-02-10T11:07:27.681Z,980.97
2019-02-10T11:08:27.660Z,980.97
2019-02-10T11:09:35.217Z,981.01
2019-02-10T11:10:28.135Z,980.94
2019-02-10T11:11:27.600Z,980.84
2019-02-10T11:12:27.587Z,980.93
2019-02-10T11:13:27.565Z,981
2019-02-10T11:14:27.543Z,980.95
2019-02-10T11:15:27.529Z,981.07
2019-02-10T11:16:27.509Z,980.87
2019-02-10T11:17:27.487Z,980.84
2019-02-10T11:18:27.470Z,980.81
2019-02-10T11:19:27.447Z,980.91
2019-02-10T11:20:27.429Z,980.82
2019-02-10T11:21:27.468Z,980.8
2019-02-10T11:22:27.391Z,980.73
2019-02-10T11:23:27.372Z,980.75
2019-02-10T11:24:28.638Z,980.82
2019-02-10T11:25:27.561Z,980.89
2019-02-10T11:26:27.313Z,980.83
2019-02-10T11:27:27.296Z,980.91
2019-02-10T11:28:27.277Z,980.79
2019-02-10T11:29:27.260Z,980.73
2019-02-10T11:30:27.239Z,980.8
2019-02-10T11:31:27.224Z,980.7
2019-02-10T11:32:27.200Z,980.7
2019-02-10T11:33:27.185Z,980.68
2019-02-10T11:34:27.162Z,980.66
2019-02-10T11:35:27.149Z,980.62
2019-02-10T11:36:27.328Z,980.6
2019-02-10T11:37:27.187Z,980.67
2019-02-10T11:38:27.089Z,980.58
2019-02-10T11:39:27.070Z,980.61
2019-02-10T11:40:27.053Z,980.63
2019-02-10T11:41:27.034Z,980.59
2019-02-10T11:42:27.013Z,980.6
2019-02-10T11:43:27.004Z,980.49
2019-02-10T11:44:26.977Z,980.52
2019-02-10T11:45:26.959Z,980.58
2019-02-10T11:46:26.940Z,980.54
2019-02-10T11:47:26.919Z,980.45
2019-02-10T11:48:26.908Z,980.39
2019-02-10T11:49:26.892Z,980.42
2019-02-10T11:50:26.873Z,980.33
2019-02-10T11:51:26.846Z,980.31
2019-02-10T11:52:26.827Z,980.42
2019-02-10T11:53:26.811Z,980.42
2019-02-10T11:54:26.788Z,980.49
2019-02-10T11:55:26.768Z,980.45
2019-02-10T11:56:26.751Z,980.39
2019-02-10T11:57:26.731Z,980.33
2019-02-10T11:58:26.726Z,980.39
2019-02-10T11:59:26.696Z,980.41
2019-02-10T12:00:26.676Z,980.38
2019-02-10T12:01:26.658Z,980.31
2019-02-10T12:02:26.642Z,980.27
2019-02-10T12:03:26.618Z,980.29
2019-02-10T12:04:26.600Z,980.35
2019-02-10T12:05:26.582Z,980.33
2019-02-10T12:06:26.564Z,980.32
2019-02-10T12:07:26.546Z,980.4
2019-02-10T12:08:35.124Z,980.36
2019-02-10T12:09:26.508Z,980.36
2019-02-10T12:10:26.521Z,980.32
2019-02-10T12:11:26.470Z,980.27
2019-02-10T12:12:26.453Z,980.42
2019-02-10T12:13:26.432Z,980.4
2019-02-10T12:14:26.414Z,980.42
2019-02-10T12:15:26.395Z,980.31
2019-02-10T12:16:26.376Z,980.33
2019-02-10T12:17:26.358Z,980.37
2019-02-10T12:18:26.338Z,980.35
2019-02-10T12:19:26.321Z,980.38
2019-02-10T12:20:26.302Z,980.4
2019-02-10T12:21:26.282Z,980.36
2019-02-10T12:22:26.266Z,980.39
2019-02-10T12:23:26.253Z,980.36
2019-02-10T12:24:26.228Z,980.33
2019-02-10T12:25:26.211Z,980.37
2019-02-10T12:26:26.190Z,980.37
2019-02-10T12:27:26.173Z,980.34
2019-02-10T12:28:26.159Z,980.33
2019-02-10T12:29:26.134Z,980.34
2019-02-10T12:30:26.119Z,980.28
2019-02-10T12:31:26.101Z,980.33